Ashburnham, Massachusetts
Current Conditions -  °F | °C
As of 11:52 PM on Tuesday 25 Nov 2014 (Local Time) from KFIT Reporting Station
Clear Clear  
Wind Chill:   Ceiling: Unl
Heat Index:   Visibility: 10mi
Dew Point: -1°   Wind: 0mph
Humidity: 79%   Direction: NA
Pressure: 30.13"   Gusts: NA
Location:  42.64°N, 71.91°W
Report Text: KFIT 260452Z AUTO 00000KT 10SM CLR 03/M01 A3013 RMK AO2 SLP204 T00281006 401830011
Loading
Personal Weather Stations






























Interactive Weather Map New forecast layout! Learn more

10-Day Weather Forecast

Advertisements
Track Severe Weather on mobile